createdAt,value
2022-08-23T00:02:22.999Z,19.73
2022-08-23T00:05:03.506Z,19.73
2022-08-23T00:07:16.610Z,19.74
2022-08-23T00:09:44.319Z,19.75
2022-08-23T00:12:17.285Z,19.76
2022-08-23T00:14:54.727Z,19.75
2022-08-23T00:17:33.167Z,19.76
2022-08-23T00:19:52.934Z,19.75
2022-08-23T00:22:20.810Z,19.73
2022-08-23T00:24:49.102Z,19.70
2022-08-23T00:27:17.764Z,19.68
2022-08-23T00:29:49.605Z,19.64
2022-08-23T00:32:22.312Z,19.60
2022-08-23T00:34:50.875Z,19.55
2022-08-23T00:37:20.301Z,19.49
2022-08-23T00:39:48.278Z,19.43
2022-08-23T00:43:01.210Z,19.39
2022-08-23T00:46:23.662Z,19.37
2022-08-23T00:48:52.010Z,19.35
2022-08-23T00:51:29.713Z,19.32
2022-08-23T00:54:03.570Z,19.33
2022-08-23T00:56:35.046Z,19.35
2022-08-23T00:59:03.062Z,19.38
2022-08-23T01:01:31.136Z,19.39
2022-08-23T01:04:04.270Z,19.39
2022-08-23T01:06:55.967Z,19.40
2022-08-23T01:09:24.554Z,19.39
2022-08-23T01:12:14.189Z,19.36
2022-08-23T01:14:53.665Z,19.33
2022-08-23T01:17:33.439Z,19.27
2022-08-23T01:20:06.580Z,19.22
2022-08-23T01:22:51.878Z,19.16
2022-08-23T01:25:22.430Z,19.13
2022-08-23T01:27:56.842Z,19.08
2022-08-23T01:30:32.599Z,19.03
2022-08-23T01:33:14.071Z,18.99
2022-08-23T01:35:56.480Z,18.95
2022-08-23T01:38:32.805Z,18.90
2022-08-23T01:41:01.177Z,18.87
2022-08-23T01:43:29.171Z,18.88
2022-08-23T01:45:57.193Z,18.88
2022-08-23T01:48:25.586Z,18.90
2022-08-23T01:50:53.672Z,18.91
2022-08-23T01:53:21.415Z,18.91
2022-08-23T01:55:50.628Z,18.86
2022-08-23T01:58:20.969Z,18.78
2022-08-23T02:00:48.712Z,18.78
2022-08-23T02:03:16.619Z,18.83
2022-08-23T02:05:45.127Z,18.86
2022-08-23T02:08:32.445Z,18.85
2022-08-23T02:11:14.676Z,18.83
2022-08-23T02:13:43.714Z,18.79
2022-08-23T02:16:14.848Z,18.75
2022-08-23T02:18:44.142Z,18.73
2022-08-23T02:21:12.852Z,18.69
2022-08-23T02:23:40.765Z,18.65
2022-08-23T02:26:08.456Z,18.59
2022-08-23T02:28:36.490Z,18.51
2022-08-23T02:31:04.558Z,18.46
2022-08-23T02:33:34.235Z,18.40
2022-08-23T02:36:02.418Z,18.37
2022-08-23T02:38:30.001Z,18.36
2022-08-23T02:41:01.837Z,18.37
2022-08-23T02:43:41.110Z,18.39
2022-08-23T02:46:23.449Z,18.42
2022-08-23T02:48:56.554Z,18.43
2022-08-23T02:51:35.671Z,18.47
2022-08-23T02:54:23.845Z,18.49
2022-08-23T02:56:52.183Z,18.48
2022-08-23T02:59:20.065Z,18.45
2022-08-23T03:01:48.440Z,18.44
2022-08-23T03:04:20.759Z,18.39
2022-08-23T03:06:48.750Z,18.37
2022-08-23T03:09:16.861Z,18.36
2022-08-23T03:11:47.624Z,18.32
2022-08-23T03:14:16.345Z,18.27
2022-08-23T03:16:45.034Z,18.21
2022-08-23T03:19:14.991Z,18.15
2022-08-23T03:21:43.326Z,18.09
2022-08-23T03:24:12.258Z,18.05
2022-08-23T03:26:45.399Z,18.03
2022-08-23T03:29:14.515Z,18.02
2022-08-23T03:31:44.366Z,18.05
2022-08-23T03:34:12.460Z,18.04
2022-08-23T03:36:40.285Z,18.06
2022-08-23T03:39:08.068Z,18.07
2022-08-23T03:41:35.636Z,18.11
2022-08-23T03:44:04.407Z,18.12
2022-08-23T03:46:34.215Z,18.14
2022-08-23T03:49:03.644Z,18.15
2022-08-23T03:51:34.393Z,18.17
2022-08-23T03:54:02.730Z,18.19
2022-08-23T03:56:34.875Z,18.19
2022-08-23T03:59:07.744Z,18.17
2022-08-23T04:01:36.094Z,18.14
2022-08-23T04:04:04.925Z,18.11
2022-08-23T04:06:32.993Z,18.13
2022-08-23T04:09:00.800Z,18.14
2022-08-23T04:11:28.923Z,18.12
2022-08-23T04:14:00.943Z,18.13
2022-08-23T04:16:30.053Z,18.11
2022-08-23T04:18:57.700Z,18.10
2022-08-23T04:21:27.036Z,18.07
2022-08-23T04:23:54.858Z,18.03
2022-08-23T04:26:26.098Z,18.01
2022-08-23T04:28:52.463Z,17.98
2022-08-23T04:31:22.371Z,17.97
2022-08-23T04:33:52.573Z,18.00
2022-08-23T04:36:23.304Z,18.06
2022-08-23T04:38:51.604Z,18.07
2022-08-23T04:41:38.071Z,18.12
2022-08-23T04:44:06.479Z,18.14
2022-08-23T04:46:35.064Z,18.12
2022-08-23T04:49:03.707Z,18.16
2022-08-23T04:51:31.815Z,18.23
2022-08-23T04:54:00.092Z,18.26
2022-08-23T04:56:33.390Z,18.31
2022-08-23T04:59:01.142Z,18.34
2022-08-23T05:01:29.235Z,18.38
2022-08-23T05:03:57.341Z,18.37
2022-08-23T05:06:26.605Z,18.36
2022-08-23T05:08:54.751Z,18.35
2022-08-23T05:11:22.994Z,18.35
2022-08-23T05:13:51.113Z,18.39
2022-08-23T05:16:20.589Z,18.48
2022-08-23T05:18:59.327Z,18.54
2022-08-23T05:21:27.072Z,18.62
2022-08-23T05:23:55.310Z,18.71
2022-08-23T05:26:25.133Z,18.81
2022-08-23T05:28:52.864Z,18.92
2022-08-23T05:31:26.218Z,19.04
2022-08-23T05:33:55.387Z,19.15
2022-08-23T05:36:25.083Z,19.27
2022-08-23T05:38:52.920Z,19.35
2022-08-23T05:41:21.124Z,19.44
2022-08-23T05:43:50.493Z,19.46
2022-08-23T05:46:21.569Z,19.50
2022-08-23T05:48:53.219Z,19.60
2022-08-23T05:51:30.753Z,19.68
2022-08-23T05:54:04.118Z,19.76
2022-08-23T05:56:41.286Z,19.87
2022-08-23T05:59:15.350Z,19.94
2022-08-23T06:01:44.138Z,20.00
2022-08-23T06:04:13.858Z,20.01
2022-08-23T06:06:43.841Z,20.10
2022-08-23T06:09:16.242Z,20.21
2022-08-23T06:11:47.026Z,20.34
2022-08-23T06:14:15.731Z,20.48
2022-08-23T06:16:51.599Z,20.61
2022-08-23T06:19:20.264Z,20.72
2022-08-23T06:21:48.937Z,20.79
2022-08-23T06:24:27.201Z,20.91
2022-08-23T06:26:56.670Z,21.02
2022-08-23T06:29:24.486Z,21.03
2022-08-23T06:31:54.183Z,21.14
2022-08-23T06:34:33.628Z,21.24
2022-08-23T06:37:14.048Z,21.32
2022-08-23T06:40:00.581Z,21.30
2022-08-23T06:42:41.903Z,21.29
2022-08-23T06:45:11.119Z,21.27
2022-08-23T06:47:42.807Z,21.30
2022-08-23T06:50:11.122Z,21.33
2022-08-23T06:52:59.225Z,21.38
2022-08-23T06:55:28.769Z,21.42
2022-08-23T06:58:03.991Z,21.47
2022-08-23T07:00:33.506Z,21.54
2022-08-23T07:03:15.508Z,21.63
2022-08-23T07:06:01.468Z,21.66
2022-08-23T07:08:31.317Z,21.75
2022-08-23T07:10:59.495Z,21.79
2022-08-23T07:13:27.761Z,21.83
2022-08-23T07:16:03.442Z,21.89
2022-08-23T07:18:33.082Z,22.03
2022-08-23T07:21:03.891Z,22.15
2022-08-23T07:23:33.996Z,22.27
2022-08-23T07:26:14.322Z,22.40
2022-08-23T07:28:43.567Z,22.55
2022-08-23T07:31:16.870Z,22.65
2022-08-23T07:33:47.699Z,22.70
2022-08-23T07:36:21.669Z,22.81
2022-08-23T07:38:51.624Z,22.89
2022-08-23T07:41:28.878Z,22.97
2022-08-23T07:43:59.429Z,23.02
2022-08-23T07:46:29.286Z,23.10
2022-08-23T07:49:00.348Z,23.18
2022-08-23T07:51:32.473Z,23.23
2022-08-23T07:54:08.230Z,23.29
2022-08-23T07:56:38.064Z,23.31
2022-08-23T07:59:08.933Z,23.32
2022-08-23T08:01:43.818Z,23.31
2022-08-23T08:04:12.703Z,23.37
2022-08-23T08:06:52.733Z,23.45
2022-08-23T08:09:19.404Z,23.52
2022-08-23T08:11:48.550Z,23.57
2022-08-23T08:14:18.544Z,23.68
2022-08-23T08:16:54.810Z,23.86
2022-08-23T08:19:24.435Z,24.02
2022-08-23T08:21:56.854Z,24.13
2022-08-23T08:24:29.662Z,24.22
2022-08-23T08:26:59.134Z,24.33
2022-08-23T08:29:27.580Z,24.37
2022-08-23T08:31:56.006Z,24.49
2022-08-23T08:34:24.274Z,24.59
2022-08-23T08:36:58.323Z,24.64
2022-08-23T08:39:31.468Z,24.64
2022-08-23T08:42:12.476Z,24.76
2022-08-23T08:45:08.405Z,24.89
2022-08-23T08:47:55.804Z,24.99
2022-08-23T08:50:37.093Z,25.02
2022-08-23T08:53:16.043Z,25.20
2022-08-23T08:56:20.373Z,25.32
2022-08-23T08:58:57.741Z,25.48
2022-08-23T09:01:26.930Z,25.63
2022-08-23T09:03:57.631Z,25.74
2022-08-23T09:06:51.115Z,25.90
2022-08-23T09:09:59.176Z,25.98
2022-08-23T09:13:18.056Z,26.04
2022-08-23T09:16:09.761Z,26.06
2022-08-23T09:18:37.792Z,26.24
2022-08-23T09:21:08.225Z,26.29
2022-08-23T09:23:43.589Z,26.36
2022-08-23T09:26:40.823Z,26.50
2022-08-23T09:29:31.481Z,26.61
2022-08-23T09:32:06.947Z,26.79
2022-08-23T09:34:41.732Z,26.88
2022-08-23T09:37:22.438Z,26.97
2022-08-23T09:40:14.168Z,27.09
2022-08-23T09:42:43.358Z,27.18
2022-08-23T09:45:35.936Z,27.35
2022-08-23T09:48:08.932Z,27.48
2022-08-23T09:50:47.406Z,27.58
2022-08-23T09:53:19.643Z,27.69
2022-08-23T09:55:54.574Z,27.79
2022-08-23T09:58:40.065Z,27.90
2022-08-23T10:01:16.181Z,27.96
2022-08-23T10:03:45.798Z,28.08
2022-08-23T10:06:20.743Z,28.23
2022-08-23T10:08:55.638Z,28.36
2022-08-23T10:11:32.658Z,28.40
2022-08-23T10:14:01.180Z,28.50
2022-08-23T10:17:04.121Z,28.63
2022-08-23T10:19:39.943Z,28.67
2022-08-23T10:22:15.767Z,28.77
2022-08-23T10:25:01.187Z,28.79
2022-08-23T10:28:05.664Z,28.93
2022-08-23T10:30:42.146Z,29.09
2022-08-23T10:33:24.706Z,29.11
2022-08-23T10:35:59.493Z,29.21
2022-08-23T10:38:51.092Z,29.34
2022-08-23T10:42:06.007Z,29.47
2022-08-23T10:44:51.424Z,29.60
2022-08-23T10:47:38.484Z,29.77
2022-08-23T10:50:17.619Z,29.86
2022-08-23T10:53:07.242Z,29.98
2022-08-23T10:55:46.036Z,30.01
2022-08-23T10:58:19.289Z,29.94
2022-08-23T11:00:47.984Z,29.77
2022-08-23T11:03:32.430Z,29.73
2022-08-23T11:06:41.525Z,29.83
2022-08-23T11:09:21.125Z,29.95
2022-08-23T11:12:17.760Z,30.07
2022-08-23T11:15:05.918Z,30.13
2022-08-23T11:17:53.439Z,30.19
2022-08-23T11:20:52.935Z,30.23
2022-08-23T11:24:00.474Z,30.26
2022-08-23T11:26:40.826Z,30.31
2022-08-23T11:29:23.781Z,30.29
2022-08-23T11:32:29.692Z,30.29
2022-08-23T11:35:13.029Z,30.32
2022-08-23T11:37:59.882Z,30.30
2022-08-23T11:40:55.356Z,30.26
2022-08-23T11:43:38.003Z,30.24
2022-08-23T11:46:14.811Z,30.27
2022-08-23T11:48:47.382Z,30.30
2022-08-23T11:51:44.784Z,30.39
2022-08-23T11:54:29.894Z,30.40
2022-08-23T11:57:35.555Z,30.52
2022-08-23T12:00:28.815Z,30.55
2022-08-23T12:03:16.993Z,30.59
2022-08-23T12:05:56.276Z,30.64
2022-08-23T12:08:29.023Z,30.77
2022-08-23T12:11:02.188Z,30.95
2022-08-23T12:13:35.226Z,31.15
2022-08-23T12:16:25.186Z,31.31
2022-08-23T12:18:59.490Z,31.45
2022-08-23T12:21:41.349Z,31.54
2022-08-23T12:24:32.312Z,31.55
2022-08-23T12:27:32.917Z,31.61
2022-08-23T12:30:26.379Z,31.61
2022-08-23T12:33:41.994Z,31.50
2022-08-23T12:36:33.788Z,31.40
2022-08-23T12:39:26.702Z,31.46
2022-08-23T12:42:08.633Z,31.47
2022-08-23T12:44:36.583Z,31.42
2022-08-23T12:47:17.933Z,31.42
2022-08-23T12:50:09.961Z,31.48
2022-08-23T12:52:38.208Z,31.49
2022-08-23T12:55:18.848Z,31.55
2022-08-23T12:57:54.845Z,31.62
2022-08-23T13:00:28.347Z,31.68
2022-08-23T13:03:15.944Z,31.74
2022-08-23T13:06:02.060Z,31.76
2022-08-23T13:08:42.538Z,31.75
2022-08-23T13:11:13.531Z,31.72
2022-08-23T13:13:43.727Z,31.74
2022-08-23T13:16:35.121Z,31.74
2022-08-23T13:19:26.176Z,31.72
2022-08-23T13:22:21.630Z,31.73
2022-08-23T13:25:31.842Z,31.74
2022-08-23T13:27:51.786Z,31.74
2022-08-23T13:30:30.474Z,31.74
2022-08-23T13:33:09.547Z,31.74
2022-08-23T13:35:44.552Z,31.76
2022-08-23T13:38:24.974Z,31.76
2022-08-23T13:41:09.944Z,31.78
2022-08-23T13:43:48.064Z,31.79
2022-08-23T13:46:28.748Z,31.69
2022-08-23T13:49:16.571Z,31.54
2022-08-23T13:52:38.095Z,31.47
2022-08-23T13:54:35.287Z,31.42
2022-08-23T13:57:08.452Z,31.41
2022-08-23T13:59:39.954Z,31.38
2022-08-23T14:02:13.587Z,31.32
2022-08-23T14:04:42.322Z,31.19
2022-08-23T14:07:11.054Z,31.08
2022-08-23T14:09:39.836Z,30.97
2022-08-23T14:12:13.441Z,30.93
2022-08-23T14:14:42.422Z,30.96
2022-08-23T14:17:14.182Z,30.96
2022-08-23T14:22:16.976Z,30.96
2022-08-23T14:24:45.438Z,30.99
2022-08-23T14:27:14.111Z,30.98
2022-08-23T14:29:42.144Z,30.96
2022-08-23T14:32:09.831Z,31.03
2022-08-23T14:34:37.547Z,31.06
2022-08-23T14:38:02.494Z,31.08
2022-08-23T14:39:35.680Z,31.08
2022-08-23T14:42:05.289Z,31.08
2022-08-23T14:44:35.700Z,30.97
2022-08-23T14:47:03.532Z,30.91
2022-08-23T14:49:31.153Z,30.79
2022-08-23T14:51:59.177Z,30.66
2022-08-23T14:54:27.026Z,30.54
2022-08-23T14:56:54.597Z,30.41
2022-08-23T14:59:22.219Z,30.27
2022-08-23T15:01:52.346Z,30.16
2022-08-23T15:04:22.780Z,30.05
2022-08-23T15:07:17.779Z,29.97
2022-08-23T15:09:21.571Z,29.84
2022-08-23T15:14:19.293Z,29.50
2022-08-23T15:16:47.058Z,29.37
2022-08-23T15:19:16.537Z,29.16
2022-08-23T15:21:46.970Z,28.72
2022-08-23T15:24:14.864Z,28.20
2022-08-23T15:26:42.730Z,27.65
2022-08-23T15:29:10.610Z,27.16
2022-08-23T15:31:38.451Z,26.53
2022-08-23T15:34:06.220Z,25.99
2022-08-23T15:36:40.006Z,25.24
2022-08-23T15:39:08.240Z,24.79
2022-08-23T15:41:36.120Z,24.19
2022-08-23T15:44:04.506Z,23.66
2022-08-23T15:46:32.350Z,23.33
2022-08-23T15:49:13.462Z,23.08
2022-08-23T15:51:41.847Z,22.84
2022-08-23T15:54:10.282Z,22.56
2022-08-23T15:56:49.445Z,22.24
2022-08-23T15:59:19.030Z,21.94
2022-08-23T16:01:46.743Z,21.49
2022-08-23T16:04:14.635Z,21.33
2022-08-23T16:06:44.684Z,21.23
2022-08-23T16:09:20.517Z,21.21
2022-08-23T16:11:49.496Z,21.28
2022-08-23T16:14:17.659Z,21.33
2022-08-23T16:16:46.133Z,21.34
2022-08-23T16:19:14.853Z,21.37
2022-08-23T16:21:44.575Z,21.35
2022-08-23T16:24:12.308Z,21.32
2022-08-23T16:26:43.747Z,21.28
2022-08-23T16:29:16.393Z,21.29
2022-08-23T16:31:45.814Z,21.32
2022-08-23T16:34:17.669Z,21.23
2022-08-23T16:36:49.810Z,21.20
2022-08-23T16:39:17.952Z,21.16
2022-08-23T16:41:45.934Z,21.16
2022-08-23T16:44:13.854Z,21.26
2022-08-23T16:46:43.391Z,21.39
2022-08-23T16:49:15.336Z,21.51
2022-08-23T16:51:43.774Z,21.63
2022-08-23T16:54:12.647Z,21.71
2022-08-23T16:56:41.393Z,21.82
2022-08-23T16:59:11.487Z,21.90
2022-08-23T17:01:55.719Z,21.98
2022-08-23T17:04:25.626Z,22.03
2022-08-23T17:06:56.686Z,22.08
2022-08-23T17:09:27.969Z,22.13
2022-08-23T17:11:58.074Z,22.14
2022-08-23T17:14:26.606Z,22.16
2022-08-23T17:16:54.737Z,22.19
2022-08-23T17:19:22.340Z,22.22
2022-08-23T17:21:50.319Z,22.23
2022-08-23T17:24:18.049Z,22.22
2022-08-23T17:26:45.464Z,22.21
2022-08-23T17:29:13.209Z,22.19
2022-08-23T17:31:41.217Z,22.15
2022-08-23T17:34:09.596Z,22.11
2022-08-23T17:36:42.665Z,22.08
2022-08-23T17:39:15.271Z,22.05
2022-08-23T17:41:45.386Z,22.03
2022-08-23T17:44:13.661Z,22.02
2022-08-23T17:46:44.723Z,22.03
2022-08-23T17:49:14.639Z,22.04
2022-08-23T17:51:42.850Z,22.05
2022-08-23T17:54:15.984Z,22.08
2022-08-23T17:56:42.820Z,22.10
2022-08-23T17:59:12.619Z,22.12
2022-08-23T18:01:41.578Z,22.16
2022-08-23T18:04:09.523Z,22.14
2022-08-23T18:06:37.680Z,22.13
2022-08-23T18:09:07.076Z,22.10
2022-08-23T18:11:35.325Z,22.07
2022-08-23T18:14:04.712Z,22.05
2022-08-23T18:16:35.534Z,22.02
2022-08-23T18:19:03.126Z,22.00
2022-08-23T18:21:31.764Z,21.93
2022-08-23T18:23:59.995Z,21.70
2022-08-23T18:26:46.965Z,21.43
2022-08-23T18:29:16.202Z,21.16
2022-08-23T18:31:44.613Z,21.08
2022-08-23T18:34:12.644Z,21.02
2022-08-23T18:36:40.422Z,21.00
2022-08-23T18:39:09.246Z,21.01
2022-08-23T18:41:37.898Z,21.03
2022-08-23T18:44:06.840Z,21.05
2022-08-23T18:46:37.329Z,21.11
2022-08-23T18:49:06.974Z,21.11
2022-08-23T18:51:35.258Z,21.12
2022-08-23T18:54:04.497Z,21.09
2022-08-23T18:56:31.989Z,21.03
2022-08-23T18:58:59.820Z,21.04
2022-08-23T19:01:33.007Z,21.09
2022-08-23T19:04:03.445Z,21.14
2022-08-23T19:06:32.057Z,21.16
2022-08-23T19:09:00.648Z,21.19
2022-08-23T19:11:29.714Z,21.23
2022-08-23T19:14:00.169Z,21.27
2022-08-23T19:16:29.209Z,21.30
2022-08-23T19:18:57.177Z,21.31
2022-08-23T19:21:26.218Z,21.31
2022-08-23T19:23:56.281Z,21.26
2022-08-23T19:26:29.684Z,21.21
2022-08-23T19:28:59.262Z,21.16
2022-08-23T19:31:33.528Z,21.15
2022-08-23T19:33:58.912Z,21.20
2022-08-23T19:36:45.103Z,21.25
2022-08-23T19:38:56.568Z,21.30
2022-08-23T19:41:24.250Z,21.34
2022-08-23T19:43:52.567Z,21.35
2022-08-23T19:46:20.250Z,21.37
2022-08-23T19:48:49.532Z,21.41
2022-08-23T19:51:18.926Z,21.46
2022-08-23T19:53:55.167Z,21.51
2022-08-23T19:56:23.036Z,21.58
2022-08-23T19:58:50.622Z,21.64
2022-08-23T20:01:18.586Z,21.68
2022-08-23T20:03:46.280Z,21.71
2022-08-23T20:06:18.772Z,21.69
2022-08-23T20:08:43.371Z,21.71
2022-08-23T20:11:10.979Z,21.71
2022-08-23T20:13:39.089Z,21.72
2022-08-23T20:16:06.971Z,21.72
2022-08-23T20:18:34.426Z,21.70
2022-08-23T20:21:02.027Z,21.68
2022-08-23T20:23:48.078Z,21.68
2022-08-23T20:26:15.761Z,21.66
2022-08-23T20:28:58.955Z,21.63
2022-08-23T20:31:22.417Z,21.58
2022-08-23T20:33:53.034Z,21.54
2022-08-23T20:36:20.876Z,21.49
2022-08-23T20:38:48.987Z,21.46
2022-08-23T20:41:16.748Z,21.45
2022-08-23T20:43:49.341Z,21.44
2022-08-23T20:46:17.295Z,21.40
2022-08-23T20:48:45.189Z,21.43
2022-08-23T20:51:13.185Z,21.50
2022-08-23T20:53:40.701Z,21.56
2022-08-23T20:56:08.326Z,21.64
2022-08-23T20:58:36.206Z,21.69
2022-08-23T21:01:06.026Z,21.68
2022-08-23T21:03:35.819Z,21.61
2022-08-23T21:06:23.591Z,21.51
2022-08-23T21:08:55.672Z,21.43
2022-08-23T21:11:26.675Z,21.35
2022-08-23T21:13:56.594Z,21.27
2022-08-23T21:16:25.609Z,21.24
2022-08-23T21:18:56.356Z,21.19
2022-08-23T21:21:25.921Z,21.10
2022-08-23T21:23:54.676Z,21.09
2022-08-23T21:26:23.056Z,21.12
2022-08-23T21:28:52.219Z,21.14
2022-08-23T21:31:23.577Z,21.17
2022-08-23T21:33:52.971Z,21.19
2022-08-23T21:36:24.459Z,21.21
2022-08-23T21:38:52.586Z,21.23
2022-08-23T21:41:43.279Z,21.21
2022-08-23T21:44:15.743Z,21.23
2022-08-23T21:46:44.543Z,21.24
2022-08-23T21:49:12.779Z,21.29
2022-08-23T21:51:42.968Z,21.30
2022-08-23T21:54:12.782Z,21.33
2022-08-23T21:56:41.111Z,21.35
2022-08-23T21:59:11.850Z,21.34
2022-08-23T22:01:41.106Z,21.35
2022-08-23T22:04:12.460Z,21.34
2022-08-23T22:06:42.854Z,21.31
2022-08-23T22:09:17.614Z,21.28
2022-08-23T22:11:47.128Z,21.24
2022-08-23T22:14:21.981Z,21.19
2022-08-23T22:16:51.559Z,21.12
2022-08-23T22:19:20.407Z,21.07
2022-08-23T22:21:49.829Z,21.02
2022-08-23T22:24:20.075Z,21.03
2022-08-23T22:26:48.978Z,21.03
2022-08-23T22:29:16.854Z,21.02
2022-08-23T22:31:47.125Z,21.00
2022-08-23T22:34:14.894Z,21.04
2022-08-23T22:36:43.017Z,21.04
2022-08-23T22:39:11.900Z,21.08
2022-08-23T22:41:40.224Z,21.08
2022-08-23T22:44:07.925Z,21.12
2022-08-23T22:46:35.898Z,21.14
2022-08-23T22:49:04.006Z,21.17
2022-08-23T22:51:34.636Z,21.17
2022-08-23T22:54:07.715Z,21.17
2022-08-23T22:56:45.995Z,21.15
2022-08-23T22:59:16.139Z,21.13
2022-08-23T23:01:48.398Z,21.08
2022-08-23T23:04:20.474Z,21.08
2022-08-23T23:06:49.371Z,21.05
2022-08-23T23:09:17.109Z,21.02
2022-08-23T23:11:45.242Z,21.00
2022-08-23T23:14:15.983Z,21.00
2022-08-23T23:16:45.149Z,21.00
2022-08-23T23:19:23.587Z,21.01
2022-08-23T23:21:55.190Z,21.05
2022-08-23T23:24:30.507Z,21.05
2022-08-23T23:26:59.525Z,21.01
2022-08-23T23:29:28.129Z,21.01
2022-08-23T23:31:56.383Z,21.00
2022-08-23T23:34:26.031Z,20.98
2022-08-23T23:36:56.417Z,20.96
2022-08-23T23:39:25.133Z,20.92
2022-08-23T23:41:53.997Z,20.92
2022-08-23T23:44:22.460Z,20.90
2022-08-23T23:46:51.823Z,20.91
2022-08-23T23:49:23.598Z,20.88
2022-08-23T23:51:49.408Z,20.84
2022-08-23T23:54:16.928Z,20.78
2022-08-23T23:56:44.498Z,20.73
2022-08-23T23:59:12.949Z,20.67
